Time;durP1;ratioP1;P1;durP2;ratioP2;P2;SDS_P1;SDS_P2;PMS_P1;PMS_P2;Temp;Humidity;BMP_temperature;BMP_pressure;BME280_temperature;BME280_humidity;BME280_pressure;Samples;Min_cycle;Max_cycle;Signal;HPM_P1;HPM_P2
2022/09/18 00:01:39;;;;;;;6.43;1.60;;;;;;;10.74;100.00;101385.44;5091080;28;20202;-51
2022/09/18 00:04:11;;;;;;;8.13;1.90;;;;;;;10.77;100.00;101382.63;5091350;28;20064;-54
2022/09/18 00:06:42;;;;;;;8.05;1.73;;;;;;;10.75;100.00;101384.50;5088538;28;20781;-52
2022/09/18 00:09:14;;;;;;;9.52;1.67;;;;;;;10.80;100.00;101385.09;5091545;28;20071;-55
2022/09/18 00:11:47;;;;;;;9.13;1.80;;;;;;;10.88;100.00;101387.28;5091391;28;20048;-53
2022/09/18 00:14:19;;;;;;;10.18;2.00;;;;;;;10.85;100.00;101382.19;5090387;28;20044;-53
2022/09/18 00:16:47;;;;;;;13.40;1.80;;;;;;;10.89;100.00;101387.19;5089846;28;20382;-53
2022/09/18 00:19:16;;;;;;;10.45;1.90;;;;;;;10.91;100.00;101393.22;5090713;28;20452;-51
2022/09/18 00:21:49;;;;;;;11.48;1.95;;;;;;;10.97;100.00;101386.75;5089653;28;20055;-49
2022/09/18 00:24:18;;;;;;;10.90;1.90;;;;;;;10.93;100.00;101385.22;5090542;28;20101;-51
2022/09/18 00:26:47;;;;;;;10.35;1.90;;;;;;;10.95;100.00;101380.75;5091096;28;20062;-54
2022/09/18 00:29:16;;;;;;;12.38;2.63;;;;;;;10.95;100.00;101380.75;5090631;28;20514;-52
2022/09/18 00:31:45;;;;;;;10.23;2.00;;;;;;;10.94;100.00;101377.25;5090646;28;20054;-53
2022/09/18 00:34:14;;;;;;;10.82;1.80;;;;;;;11.01;100.00;101382.16;5090315;28;20089;-51
2022/09/18 00:36:43;;;;;;;11.00;1.95;;;;;;;11.02;100.00;101368.06;5089747;28;20415;-52
2022/09/18 00:39:13;;;;;;;12.55;2.35;;;;;;;11.03;100.00;101372.38;5090577;28;20478;-53
2022/09/18 00:41:43;;;;;;;12.02;1.70;;;;;;;11.05;100.00;101378.41;5090437;28;20751;-50
2022/09/18 00:44:35;;;;;;;6.50;1.48;;;;;;;11.05;100.00;101373.97;5090339;28;20052;-53
2022/09/18 00:47:26;;;;;;;13.48;2.00;;;;;;;11.10;100.00;101385.09;5090515;28;20048;-52
2022/09/18 00:50:02;;;;;;;6.93;1.50;;;;;;;11.10;100.00;101384.25;5088957;28;20075;-54
2022/09/18 00:52:37;;;;;;;9.05;1.98;;;;;;;11.15;100.00;101392.72;5090299;28;20071;-53
2022/09/18 00:55:10;;;;;;;11.63;2.33;;;;;;;11.10;100.00;101395.63;5090277;28;20044;-53
2022/09/18 00:57:41;;;;;;;8.68;1.95;;;;;;;11.20;100.00;101390.66;5122721;27;20579;-52
2022/09/18 01:00:13;;;;;;;10.60;1.90;;;;;;;11.20;100.00;101381.91;5090014;28;20055;-52
2022/09/18 01:02:42;;;;;;;10.02;1.95;;;;;;;11.16;100.00;101386.50;5090358;28;20124;-55
2022/09/18 01:05:12;;;;;;;7.85;1.60;;;;;;;11.18;100.00;101387.28;5088162;28;20131;-52
2022/09/18 01:08:01;;;;;;;5.25;1.35;;;;;;;11.18;100.00;101387.28;5090366;28;20040;-54
2022/09/18 01:10:48;;;;;;;9.38;1.83;;;;;;;11.21;100.00;101387.09;5090108;28;20044;-52
2022/09/18 01:13:25;;;;;;;5.80;1.70;;;;;;;11.21;100.00;101383.59;5089709;28;20417;-53
2022/09/18 01:16:00;;;;;;;10.73;1.65;;;;;;;11.20;100.00;101376.66;5089872;28;20089;-53
2022/09/18 01:18:39;;;;;;;9.43;2.10;;;;;;;11.22;100.00;101365.09;5090023;28;20082;-52
2022/09/18 01:21:13;;;;;;;13.15;1.75;;;;;;;11.19;100.00;101360.00;5088773;28;20048;-53
2022/09/18 01:24:12;;;;;;;7.78;1.60;;;;;;;11.24;100.00;101359.75;5090050;28;20079;-53
2022/09/18 01:26:51;;;;;;;8.13;1.60;;;;;;;11.24;100.00;101367.63;5089730;28;20070;-51
2022/09/18 01:29:28;;;;;;;10.07;1.60;;;;;;;11.25;100.00;101364.06;5089726;28;20482;-50
2022/09/18 01:32:02;;;;;;;10.57;1.90;;;;;;;11.23;100.00;101360.66;5089406;28;20048;-52
2022/09/18 01:34:35;;;;;;;8.57;1.77;;;;;;;11.21;100.00;101366.03;5089187;28;20056;-51
2022/09/18 01:37:10;;;;;;;8.07;1.80;;;;;;;11.19;100.00;101378.44;5088965;28;20097;-52
2022/09/18 01:39:43;;;;;;;10.32;1.70;;;;;;;11.20;100.00;101381.91;5089652;28;20083;-53
2022/09/18 01:42:12;;;;;;;6.75;1.25;;;;;;;11.24;100.00;101368.47;5089289;28;20134;-53
2022/09/18 01:44:44;;;;;;;12.48;1.90;;;;;;;11.20;100.00;101380.13;5089418;28;20058;-53
2022/09/18 01:47:16;;;;;;;8.52;1.90;;;;;;;11.13;100.00;101373.53;5089421;28;20515;-53
2022/09/18 01:49:47;;;;;;;8.88;1.65;;;;;;;11.13;100.00;101377.00;5088868;28;20587;-53
2022/09/18 01:52:21;;;;;;;11.65;1.92;;;;;;;11.16;100.00;101371.56;5088962;28;20075;-53
2022/09/18 01:54:51;;;;;;;8.32;1.52;;;;;;;11.20;100.00;101382.75;5089037;28;20081;-54
2022/09/18 01:57:23;;;;;;;8.93;1.85;;;;;;;11.20;100.00;101374.03;5087762;28;20343;-50
2022/09/18 01:59:57;;;;;;;5.50;1.60;;;;;;;11.16;100.00;101371.56;5088818;28;20458;-52
2022/09/18 02:02:31;;;;;;;9.10;1.58;;;;;;;11.21;100.00;101360.75;5089257;28;20083;-51
2022/09/18 02:05:02;;;;;;;6.88;1.50;;;;;;;11.20;100.00;101358.22;5087807;28;20055;-50
2022/09/18 02:07:37;;;;;;;7.53;1.55;;;;;;;11.22;100.00;101362.47;5090939;28;20044;-51
2022/09/18 02:10:07;;;;;;;8.88;1.83;;;;;;;11.16;100.00;101354.91;5093702;28;20663;-48
2022/09/18 02:12:38;;;;;;;8.65;1.40;;;;;;;11.19;100.00;101370.53;5093376;28;20075;-49
2022/09/18 02:15:13;;;;;;;9.02;1.73;;;;;;;11.20;100.00;101360.88;5093051;28;20800;-49
2022/09/18 02:17:46;;;;;;;10.75;1.92;;;;;;;11.18;100.00;101374.13;5093622;28;20056;-49
2022/09/18 02:20:19;;;;;;;7.82;1.42;;;;;;;11.12;100.00;101374.47;5092296;28;20044;-52
2022/09/18 02:22:50;;;;;;;8.00;1.60;;;;;;;11.09;100.00;101364.97;5093351;28;20113;-49
2022/09/18 02:25:24;;;;;;;7.97;2.05;;;;;;;11.11;100.00;101362.25;5093350;28;20134;-49
2022/09/18 02:27:54;;;;;;;8.73;1.30;;;;;;;11.08;100.00;101351.91;5094044;28;20048;-51
2022/09/18 02:30:24;;;;;;;9.48;1.50;;;;;;;11.14;100.00;101348.91;5092833;28;20051;-51
2022/09/18 02:32:54;;;;;;;8.32;1.52;;;;;;;11.11;100.00;101344.69;5091835;28;20077;-51
2022/09/18 02:35:27;;;;;;;12.07;2.05;;;;;;;11.12;100.00;101350.78;5091486;28;20098;-52
2022/09/18 02:37:59;;;;;;;5.85;1.23;;;;;;;11.13;100.00;101344.59;5093323;28;20044;-49
2022/09/18 02:40:37;;;;;;;9.38;2.20;;;;;;;11.07;100.00;101339.66;5052357;28;20151;-47
2022/09/18 02:43:30;;;;;;;9.77;1.80;;;;;;;11.06;100.00;101353.78;5052632;28;20045;-48
2022/09/18 02:46:08;;;;;;;10.15;1.67;;;;;;;11.12;100.00;101350.78;5052208;28;20430;-50
2022/09/18 02:48:51;;;;;;;9.23;1.58;;;;;;;11.10;100.00;101342.97;5053139;28;20124;-51
2022/09/18 02:51:29;;;;;;;9.30;1.58;;;;;;;11.12;100.00;101343.72;5051247;28;20080;-48
2022/09/18 02:54:04;;;;;;;6.63;1.58;;;;;;;11.10;100.00;101339.50;5052869;28;20080;-51
2022/09/18 02:56:40;;;;;;;10.95;1.65;;;;;;;11.13;100.00;101344.59;5052077;28;20103;-48
2022/09/18 02:59:11;;;;;;;10.18;2.13;;;;;;;11.13;100.00;101341.94;5052417;28;20123;-47
2022/09/18 03:01:44;;;;;;;11.57;1.77;;;;;;;11.12;100.00;101338.44;5050901;28;20049;-47
2022/09/18 03:04:14;;;;;;;9.90;1.85;;;;;;;11.15;100.00;101338.28;5051894;28;20053;-50
2022/09/18 03:06:44;;;;;;;9.30;1.75;;;;;;;11.17;100.00;101340.81;5051319;28;20051;-48
2022/09/18 03:09:14;;;;;;;6.65;1.63;;;;;;;11.13;100.00;101344.59;5052213;28;20044;-52
2022/09/18 03:11:43;;;;;;;12.27;1.80;;;;;;;11.14;100.00;101341.84;5051842;28;20080;-51
2022/09/18 03:14:11;;;;;;;8.27;1.63;;;;;;;11.16;100.00;101333.84;5052053;28;20049;-47
2022/09/18 03:16:40;;;;;;;8.20;1.58;;;;;;;11.18;100.00;101346.94;5052099;28;20133;-51
2022/09/18 03:19:10;;;;;;;9.43;1.55;;;;;;;11.17;100.00;101335.56;5050721;28;20118;-48
2022/09/18 03:21:38;;;;;;;10.07;2.25;;;;;;;11.26;100.00;101331.53;5051015;28;20080;-52
2022/09/18 03:24:06;;;;;;;8.20;1.70;;;;;;;11.27;100.00;101331.41;5052106;28;20554;-51
2022/09/18 03:26:34;;;;;;;8.50;1.52;;;;;;;11.28;100.00;101333.13;5051522;28;20499;-53
2022/09/18 03:29:02;;;;;;;8.05;1.67;;;;;;;11.27;100.00;101327.94;5052021;28;20040;-48
2022/09/18 03:31:30;;;;;;;13.15;1.60;;;;;;;11.29;100.00;101319.03;5051247;28;20080;-46
2022/09/18 03:34:00;;;;;;;11.48;1.95;;;;;;;11.26;100.00;101324.50;5051654;28;20048;-48
2022/09/18 03:36:28;;;;;;;8.25;1.80;;;;;;;11.22;100.00;101319.47;5050336;28;20828;-50
2022/09/18 03:38:56;;;;;;;6.53;1.52;;;;;;;11.20;100.00;101321.38;5066610;28;20052;-49
2022/09/18 03:41:24;;;;;;;6.80;1.60;;;;;;;11.20;100.00;101324.84;5091661;28;20040;-49
2022/09/18 03:43:52;;;;;;;10.45;2.08;;;;;;;11.15;100.00;101311.97;5091508;28;20118;-48
2022/09/18 03:46:22;;;;;;;6.72;1.50;;;;;;;11.20;100.00;101321.38;5091273;28;20128;-47
2022/09/18 03:48:51;;;;;;;6.85;1.33;;;;;;;11.23;100.00;101308.84;5091292;28;20055;-47
2022/09/18 03:51:21;;;;;;;6.85;1.00;;;;;;;11.13;100.00;101310.34;5091700;28;20066;-48
2022/09/18 03:53:49;;;;;;;7.63;1.50;;;;;;;11.12;100.00;101317.38;5092406;28;20063;-49
2022/09/18 03:56:18;;;;;;;9.65;1.40;;;;;;;11.08;100.00;101315.88;5092473;28;20452;-46
2022/09/18 03:58:46;;;;;;;8.20;2.17;;;;;;;11.13;100.00;101313.00;5092259;28;20074;-50
2022/09/18 04:01:14;;;;;;;6.85;0.90;;;;;;;11.15;100.00;101316.38;5091892;28;20101;-51
2022/09/18 04:03:42;;;;;;;6.32;1.40;;;;;;;11.12;100.00;101316.56;5091990;28;20055;-48
2022/09/18 04:06:10;;;;;;;8.70;1.45;;;;;;;11.08;100.00;101310.63;5090958;28;20101;-50
2022/09/18 04:08:40;;;;;;;6.85;1.10;;;;;;;11.11;100.00;101314.84;5092636;28;20059;-49
2022/09/18 04:11:08;;;;;;;9.93;1.52;;;;;;;11.18;100.00;101317.97;5092297;28;20414;-46
2022/09/18 04:13:38;;;;;;;6.47;1.15;;;;;;;11.20;100.00;101301.16;5092132;28;20048;-47
2022/09/18 04:16:08;;;;;;;8.02;1.45;;;;;;;11.18;100.00;101305.69;5091843;28;20413;-47
2022/09/18 04:18:37;;;;;;;9.32;1.13;;;;;;;11.16;100.00;101299.63;5092424;28;20039;-48
2022/09/18 04:21:05;;;;;;;7.82;1.42;;;;;;;11.19;100.00;101302.06;5090889;28;20048;-48
2022/09/18 04:23:33;;;;;;;6.43;1.48;;;;;;;11.15;100.00;101304.06;5092151;28;20044;-49
2022/09/18 04:26:07;;;;;;;8.13;1.10;;;;;;;11.13;100.00;101300.66;5092097;28;20508;-48
2022/09/18 04:28:36;;;;;;;11.57;1.55;;;;;;;11.16;100.00;101311.00;5091994;28;20047;-50
2022/09/18 04:31:04;;;;;;;7.95;1.60;;;;;;;11.11;100.00;101304.31;5091424;28;20094;-48
2022/09/18 04:33:32;;;;;;;6.65;1.42;;;;;;;11.13;100.00;101316.47;5091845;28;20042;-49
2022/09/18 04:36:01;;;;;;;6.03;0.90;;;;;;;11.15;100.00;101316.38;5090515;28;20055;-48
2022/09/18 04:38:29;;;;;;;9.70;1.92;;;;;;;11.17;100.00;101309.25;5089398;28;20055;-50
2022/09/18 04:40:58;;;;;;;7.50;1.30;;;;;;;11.10;100.00;101305.28;5091585;28;20052;-49
2022/09/18 04:43:28;;;;;;;7.78;1.25;;;;;;;11.04;100.00;101303.00;5090601;28;20058;-50
2022/09/18 04:45:56;;;;;;;5.47;1.33;;;;;;;11.04;100.00;101305.66;5091387;28;20052;-47
2022/09/18 04:48:24;;;;;;;5.65;1.42;;;;;;;11.01;100.00;101305.84;5090355;28;21389;-49
2022/09/18 04:50:52;;;;;;;7.57;1.10;;;;;;;11.07;100.00;101303.69;5090299;28;20044;-49
2022/09/18 04:53:20;;;;;;;6.97;1.42;;;;;;;11.04;100.00;101309.09;5091310;28;20048;-50
2022/09/18 04:55:48;;;;;;;7.93;1.35;;;;;;;11.07;100.00;101310.72;5091423;28;20052;-48
2022/09/18 04:58:19;;;;;;;4.78;1.13;;;;;;;11.06;100.00;101312.50;5090007;28;20032;-48
2022/09/18 05:00:50;;;;;;;7.28;1.42;;;;;;;11.05;100.00;101313.44;5091302;28;20131;-49
2022/09/18 05:03:19;;;;;;;5.97;1.55;;;;;;;11.05;100.00;101318.72;5091029;28;20127;-50
2022/09/18 05:05:48;;;;;;;10.88;1.70;;;;;;;10.98;100.00;101318.22;5090053;28;20040;-50
2022/09/18 05:08:16;;;;;;;9.00;1.27;;;;;;;10.99;100.00;101303.28;5090439;28;20562;-51
2022/09/18 05:10:44;;;;;;;8.77;1.38;;;;;;;10.99;100.00;101301.50;5091233;28;20498;-52
2022/09/18 05:13:12;;;;;;;4.53;1.20;;;;;;;11.03;100.00;101311.84;5090785;28;20160;-48
2022/09/18 05:15:40;;;;;;;6.50;1.50;;;;;;;11.04;100.00;101308.28;5090943;28;20514;-49
2022/09/18 05:18:13;;;;;;;6.75;1.15;;;;;;;11.07;100.00;101308.09;5090757;28;20398;-49
2022/09/18 05:20:41;;;;;;;8.73;1.10;;;;;;;11.03;100.00;101306.56;5089979;28;20040;-50
2022/09/18 05:23:09;;;;;;;6.80;1.25;;;;;;;11.06;100.00;101311.69;5090344;28;20563;-47
2022/09/18 05:25:37;;;;;;;7.15;1.45;;;;;;;11.06;100.00;101312.50;5090970;28;20070;-50
2022/09/18 05:28:05;;;;;;;6.78;1.10;;;;;;;11.08;100.00;101307.16;5090640;28;20119;-48
2022/09/18 05:30:33;;;;;;;5.97;1.10;;;;;;;11.07;100.00;101302.81;5090522;28;20042;-52
2022/09/18 05:33:03;;;;;;;7.72;1.30;;;;;;;11.04;100.00;101305.66;5090964;28;20082;-49
2022/09/18 05:35:34;;;;;;;5.43;1.10;;;;;;;11.03;100.00;101306.56;5089202;28;20048;-48
2022/09/18 05:38:02;;;;;;;7.20;1.30;;;;;;;11.03;100.00;101307.44;5089993;28;20052;-50
2022/09/18 05:40:33;;;;;;;9.52;1.55;;;;;;;11.00;100.00;101304.97;5089752;28;20048;-50
2022/09/18 05:43:03;;;;;;;;;;;;;;;11.00;100.00;101307.59;5090276;28;20160;-49
2022/09/18 05:45:31;;;;;;;6.80;0.98;;;;;;;10.99;100.00;101292.78;5122449;27;20026;-47
2022/09/18 05:48:01;;;;;;;3.80;0.95;;;;;;;11.01;100.00;101296.13;5090393;28;20044;-50
2022/09/18 05:50:30;;;;;;;5.55;1.23;;;;;;;11.05;100.00;101294.19;5088896;28;20050;-51
2022/09/18 05:53:01;;;;;;;6.65;0.95;;;;;;;11.10;100.00;101297.41;5090879;28;20532;-50
2022/09/18 05:55:29;;;;;;;5.97;1.10;;;;;;;11.15;100.00;101295.31;5090025;28;20059;-50
2022/09/18 05:58:00;;;;;;;7.00;1.10;;;;;;;11.11;100.00;101297.28;5088980;28;20127;-52
2022/09/18 06:00:31;;;;;;;5.25;1.08;;;;;;;11.10;100.00;101302.66;5089815;28;20122;-51
2022/09/18 06:03:01;;;;;;;9.38;1.33;;;;;;;11.12;100.00;101303.41;5090522;28;20105;-52
2022/09/18 06:05:30;;;;;;;6.32;0.95;;;;;;;11.15;100.00;101308.47;5088470;28;20105;-51
2022/09/18 06:08:01;;;;;;;5.45;1.10;;;;;;;11.14;100.00;101293.63;5090130;28;20044;-50
2022/09/18 06:10:30;;;;;;;7.53;1.23;;;;;;;11.16;100.00;101291.75;5090194;28;20398;-51
2022/09/18 06:13:01;;;;;;;5.95;0.90;;;;;;;11.16;100.00;101283.84;5090158;28;20043;-52
2022/09/18 06:15:30;;;;;;;5.15;1.00;;;;;;;11.21;100.00;101299.34;5089834;28;20457;-53
2022/09/18 06:18:01;;;;;;;8.25;1.40;;;;;;;11.22;100.00;101301.91;5089043;28;20067;-50
2022/09/18 06:20:29;;;;;;;5.57;1.17;;;;;;;11.20;100.00;101298.50;5087284;28;20052;-52
2022/09/18 06:23:01;;;;;;;4.43;0.90;;;;;;;11.25;100.00;101308.78;5090161;28;20039;-50
2022/09/18 06:25:30;;;;;;;6.65;1.08;;;;;;;11.25;100.00;101306.16;5090023;28;20044;-50
2022/09/18 06:27:59;;;;;;;5.30;0.93;;;;;;;11.23;100.00;101302.75;5089874;28;20443;-48
2022/09/18 06:30:29;;;;;;;7.18;1.25;;;;;;;11.24;100.00;101304.44;5089342;28;20052;-52
2022/09/18 06:33:01;;;;;;;7.13;0.95;;;;;;;11.29;100.00;101302.41;5088834;28;20410;-51
2022/09/18 06:35:30;;;;;;;5.07;0.90;;;;;;;11.22;100.00;101295.78;5087968;28;20097;-46
2022/09/18 06:38:02;;;;;;;9.07;1.63;;;;;;;11.21;100.00;101294.09;5088540;28;20552;-47
2022/09/18 06:40:34;;;;;;;6.32;1.20;;;;;;;11.26;100.00;101292.88;5090389;28;20044;-52
2022/09/18 06:43:03;;;;;;;6.53;1.20;;;;;;;11.30;100.00;101296.16;5089349;28;20059;-47
2022/09/18 06:45:31;;;;;;;4.07;0.90;;;;;;;11.33;100.00;101302.09;5087849;28;20052;-47
2022/09/18 06:48:03;;;;;;;4.60;1.00;;;;;;;11.31;100.00;101296.06;5090016;28;20469;-46
2022/09/18 06:50:31;;;;;;;4.25;0.88;;;;;;;11.36;100.00;101281.78;5088326;28;20044;-48
2022/09/18 06:53:03;;;;;;;7.30;1.33;;;;;;;11.43;100.00;101288.38;5090129;28;20075;-47
2022/09/18 06:55:38;;;;;;;9.88;1.10;;;;;;;11.48;100.00;101294.22;5093437;28;20047;-47
2022/09/18 06:58:06;;;;;;;4.63;0.88;;;;;;;11.46;100.00;101289.00;5092024;28;20781;-48
2022/09/18 07:00:34;;;;;;;3.88;0.95;;;;;;;11.52;100.00;101293.06;5093333;28;20498;-46
2022/09/18 07:03:03;;;;;;;5.53;1.10;;;;;;;11.63;100.00;101295.00;5093600;28;20059;-48
2022/09/18 07:05:32;;;;;;;4.10;0.82;;;;;;;11.62;100.00;101282.81;5089989;28;20056;-51
2022/09/18 07:08:02;;;;;;;5.35;1.23;;;;;;;11.59;100.00;101299.66;5091712;28;20116;-51
2022/09/18 07:10:30;;;;;;;5.43;1.00;;;;;;;11.62;100.00;101303.88;5093575;28;20040;-51
2022/09/18 07:13:00;;;;;;;5.60;0.98;;;;;;;11.58;100.00;101313.75;5093365;28;20067;-49
2022/09/18 07:15:29;;;;;;;6.35;1.08;;;;;;;11.52;100.00;101306.25;5092870;28;20043;-49
2022/09/18 07:17:58;;;;;;;6.80;1.77;;;;;;;11.60;100.00;101300.47;5093820;28;20456;-50
2022/09/18 07:20:27;;;;;;;8.48;1.38;;;;;;;11.64;100.00;101305.47;5090214;28;20059;-52
2022/09/18 07:22:57;;;;;;;6.20;1.33;;;;;;;11.63;100.00;101316.97;5091954;28;20076;-51
2022/09/18 07:25:28;;;;;;;6.63;1.38;;;;;;;11.64;100.00;101305.47;5092963;28;20067;-48
2022/09/18 07:28:02;;;;;;;3.90;1.00;;;;;;;11.63;100.00;101305.56;5092718;28;20051;-50
2022/09/18 07:30:30;;;;;;;4.15;0.90;;;;;;;11.63;100.00;101316.09;5091586;28;20380;-49
2022/09/18 07:33:01;;;;;;;6.60;1.85;;;;;;;11.70;100.00;101306.03;5092782;28;20105;-48
2022/09/18 07:35:29;;;;;;;6.82;1.27;;;;;;;11.67;100.00;101313.19;5089066;28;20050;-51
2022/09/18 07:37:58;;;;;;;8.70;1.30;;;;;;;11.71;100.00;101313.84;5092853;28;20075;-51
2022/09/18 07:40:28;;;;;;;4.80;1.10;;;;;;;11.74;100.00;101307.53;5092369;28;20562;-52
2022/09/18 07:42:59;;;;;;;6.70;1.23;;;;;;;11.78;100.00;101312.53;5092862;28;20391;-52
2022/09/18 07:45:28;;;;;;;5.13;1.23;;;;;;;11.82;100.00;101311.38;5091102;28;20082;-49
2022/09/18 07:48:01;;;;;;;5.22;1.10;;;;;;;11.90;100.00;101305.63;5092581;28;20654;-50
2022/09/18 07:50:30;;;;;;;6.22;1.10;;;;;;;11.91;100.00;101304.66;5089466;28;20052;-51
2022/09/18 07:53:01;;;;;;;3.83;0.90;;;;;;;11.95;100.00;101314.09;5092434;28;20154;-50
2022/09/18 07:55:30;;;;;;;4.25;0.85;;;;;;;12.02;100.00;101309.28;5092131;28;20055;-46
2022/09/18 07:58:00;;;;;;;7.22;1.30;;;;;;;11.99;100.00;101307.69;5093016;28;20351;-47
2022/09/18 08:00:30;;;;;;;8.20;1.20;;;;;;;11.99;100.00;101310.34;5091883;28;20134;-48
2022/09/18 08:03:02;;;;;;;7.05;1.40;;;;;;;12.02;100.00;101309.28;5092838;28;20155;-50
2022/09/18 08:05:30;;;;;;;6.47;1.40;;;;;;;11.97;100.00;101317.50;5088389;28;20559;-48
2022/09/18 08:08:04;;;;;;;7.72;1.88;;;;;;;12.01;100.00;101310.22;5092624;28;20449;-47
2022/09/18 08:10:37;;;;;;;7.65;2.03;;;;;;;12.02;100.00;101305.81;5092546;28;20498;-48
2022/09/18 08:13:05;;;;;;;5.43;2.08;;;;;;;12.07;100.00;101311.66;5092346;28;20105;-47
2022/09/18 08:15:34;;;;;;;7.63;1.65;;;;;;;12.11;100.00;101315.78;5091843;28;20047;-48
2022/09/18 08:18:02;;;;;;;7.63;1.50;;;;;;;11.96;100.00;101326.34;5092647;28;20095;-50
2022/09/18 08:20:30;;;;;;;7.03;1.20;;;;;;;11.88;100.00;101325.13;5090512;28;20040;-51
2022/09/18 08:22:58;;;;;;;6.70;1.83;;;;;;;11.87;100.00;101318.16;5091759;28;20516;-49
2022/09/18 08:25:27;;;;;;;4.68;1.58;;;;;;;11.76;100.00;101329.38;5090658;28;20040;-46
2022/09/18 08:27:59;;;;;;;7.82;1.33;;;;;;;11.76;100.00;101316.19;5092285;28;20067;-49
2022/09/18 08:30:27;;;;;;;7.13;1.73;;;;;;;11.75;100.00;101310.09;5091052;28;20105;-46
2022/09/18 08:32:59;;;;;;;6.32;1.10;;;;;;;11.79;100.00;101308.09;5090606;28;20062;-46
2022/09/18 08:35:31;;;;;;;5.35;1.58;;;;;;;11.76;100.00;101306.47;5088800;28;20048;-49
2022/09/18 08:38:00;;;;;;;5.35;1.30;;;;;;;11.85;100.00;101307.72;5091984;28;20062;-47
2022/09/18 08:40:55;;;;;;;3.75;0.90;;;;;;;11.87;100.00;101304.97;5091947;28;20044;-48
2022/09/18 08:43:44;;;;;;;4.95;1.20;;;;;;;11.99;100.00;101312.13;5091361;28;20044;-47
2022/09/18 08:46:17;;;;;;;4.32;0.98;;;;;;;12.01;100.00;101310.22;5091341;28;20474;-52
2022/09/18 08:48:55;;;;;;;6.38;1.17;;;;;;;12.04;100.00;101311.81;5091555;28;20071;-51
2022/09/18 08:51:29;;;;;;;5.38;0.95;;;;;;;12.09;100.00;101309.75;5090478;28;20583;-51
2022/09/18 08:54:06;;;;;;;4.90;1.08;;;;;;;12.22;100.00;101312.47;5091379;28;20052;-50
2022/09/18 08:56:35;;;;;;;3.63;1.08;;;;;;;12.36;100.00;101308.91;5091497;28;20087;-50
2022/09/18 08:59:11;;;;;;;4.60;1.00;;;;;;;12.43;100.00;101320.75;5091245;28;20530;-48
2022/09/18 09:01:48;;;;;;;4.18;1.30;;;;;;;12.41;100.00;101334.03;5090565;28;20127;-49
2022/09/18 09:04:26;;;;;;;5.93;1.20;;;;;;;12.32;100.00;101319.69;5090928;28;20135;-49
2022/09/18 09:07:08;;;;;;;4.90;1.33;;;;;;;12.37;100.00;101315.91;5089939;28;20055;-52
2022/09/18 09:10:03;;;;;;;4.45;0.90;;;;;;;12.37;100.00;101323.81;5090918;28;20044;-48
2022/09/18 09:12:41;;;;;;;4.90;1.08;;;;;;;12.40;100.00;101311.25;5074811;28;20098;-47
2022/09/18 09:15:19;;;;;;;6.25;1.25;;;;;;;12.23;100.00;101320.28;5090057;28;20097;-48
2022/09/18 09:17:52;;;;;;;6.05;1.08;;;;;;;12.29;100.00;101311.94;5090150;28;20040;-50
2022/09/18 09:20:22;;;;;;;5.17;1.00;;;;;;;12.41;100.00;101304.19;5089949;28;20051;-49
2022/09/18 09:23:00;;;;;;;4.40;1.10;;;;;;;12.45;100.00;101297.78;5089200;28;20505;-47
2022/09/18 09:25:38;;;;;;;4.38;1.30;;;;;;;12.48;100.00;101293.13;5090637;28;20098;-48
2022/09/18 09:28:14;;;;;;;6.28;1.10;;;;;;;12.59;100.00;101288.94;5091015;28;20083;-49
2022/09/18 09:30:53;;;;;;;5.15;1.20;;;;;;;12.71;100.00;101292.53;5090128;28;20048;-52
2022/09/18 09:33:26;;;;;;;6.70;1.83;;;;;;;12.78;100.00;101288.56;5090384;28;20040;-50
2022/09/18 09:35:55;;;;;;;6.43;1.30;;;;;;;12.87;100.00;101290.56;5088760;28;20044;-53
2022/09/18 09:38:37;;;;;;;4.72;1.17;;;;;;;12.96;100.00;101292.56;5090200;28;20058;-51
2022/09/18 09:41:14;;;;;;;6.27;1.27;;;;;;;13.04;100.00;101291.22;5089390;28;20155;-49
2022/09/18 09:43:47;;;;;;;4.38;1.10;;;;;;;13.09;100.00;101297.00;5090374;28;20482;-48
2022/09/18 09:46:27;;;;;;;4.72;1.40;;;;;;;13.12;100.00;101292.38;5089129;28;20047;-48
2022/09/18 09:49:03;;;;;;;4.60;1.35;;;;;;;13.05;100.00;101280.53;5090603;28;20056;-50
2022/09/18 09:51:42;;;;;;;6.28;1.52;;;;;;;13.19;100.00;101290.16;5088529;28;20988;-47
2022/09/18 09:54:12;;;;;;;5.82;1.23;;;;;;;13.13;100.00;101285.28;5089655;28;20068;-50
2022/09/18 09:56:45;;;;;;;6.35;1.23;;;;;;;13.16;100.00;101293.84;5090646;28;20047;-51
2022/09/18 09:59:23;;;;;;;6.78;1.50;;;;;;;13.28;100.00;101281.59;5088618;28;20097;-49
2022/09/18 10:01:59;;;;;;;7.32;1.38;;;;;;;13.37;100.00;101276.66;5089681;28;20485;-46
2022/09/18 10:04:37;;;;;;;3.83;1.10;;;;;;;13.42;100.00;101278.00;5088307;28;20062;-53
2022/09/18 10:07:16;;;;;;;5.55;1.20;;;;;;;13.40;100.00;101269.34;5089132;28;20560;-50
2022/09/18 10:09:48;;;;;;;4.78;1.35;;;;;;;13.43;100.00;101281.50;5090203;28;20051;-50
2022/09/18 10:12:25;;;;;;;4.20;1.27;;;;;;;13.46;100.00;101273.38;5090000;28;20487;-52
2022/09/18 10:14:57;;;;;;;7.20;1.33;;;;;;;13.55;100.00;101275.34;5089430;28;20352;-50
2022/09/18 10:17:36;;;;;;;6.38;1.05;;;;;;;13.53;100.00;101280.75;5090566;28;20093;-52
2022/09/18 10:20:06;;;;;;;5.63;1.10;;;;;;;13.58;100.00;101277.78;5087699;28;20048;-52
2022/09/18 10:22:36;;;;;;;3.70;1.17;;;;;;;13.58;100.00;101287.50;5088873;28;20526;-52
2022/09/18 10:25:13;;;;;;;5.13;1.15;;;;;;;13.62;100.00;101287.19;5090137;28;20052;-54
2022/09/18 10:27:41;;;;;;;7.97;1.10;;;;;;;13.57;100.00;101276.09;5090706;28;20048;-54
2022/09/18 10:30:13;;;;;;;4.97;0.88;;;;;;;13.68;100.00;101277.97;5092582;28;20040;-49
2022/09/18 10:32:43;;;;;;;4.22;0.88;;;;;;;13.72;100.00;101279.44;5093595;28;20048;-50
2022/09/18 10:35:47;;;;;;;4.93;1.10;;;;;;;13.73;100.00;101274.97;5092292;28;20044;-52
2022/09/18 10:38:29;;;;;;;6.82;1.00;;;;;;;13.75;100.00;101287.13;5093456;28;20498;-52
2022/09/18 10:41:23;;;;;;;5.65;1.10;;;;;;;13.69;100.00;101279.66;5094212;28;20482;-52
2022/09/18 10:44:22;;;;;;;4.60;1.02;;;;;;;13.73;100.00;101277.63;5093602;28;20078;-52
2022/09/18 10:46:55;;;;;;;6.13;1.10;;;;;;;13.64;100.00;101271.22;5093093;28;20062;-54
2022/09/18 10:49:29;;;;;;;4.72;0.90;;;;;;;13.58;100.00;101280.44;5092510;28;20052;-54
2022/09/18 10:52:30;;;;;;;4.88;1.05;;;;;;;13.65;100.00;101280.84;5092084;28;20048;-53
2022/09/18 10:55:02;;;;;;;2.67;1.00;;;;;;;13.65;100.00;101279.03;5093492;28;20044;-53
2022/09/18 10:57:32;;;;;;;5.60;1.00;;;;;;;13.70;100.00;101286.63;5093471;28;20078;-53
2022/09/18 11:00:03;;;;;;;8.50;1.35;;;;;;;13.72;100.00;101287.38;5092534;28;20394;-53
2022/09/18 11:02:38;;;;;;;7.05;1.50;;;;;;;13.68;100.00;101276.16;5092815;28;20064;-52
2022/09/18 11:05:17;;;;;;;8.43;1.40;;;;;;;13.60;100.00;101265.28;5091407;28;20209;-53
2022/09/18 11:07:48;;;;;;;7.13;1.70;;;;;;;13.65;100.00;101273.75;5092748;28;20051;-55
2022/09/18 11:10:18;;;;;;;4.15;1.20;;;;;;;13.63;100.00;101273.03;5092848;28;20509;-52
2022/09/18 11:12:49;;;;;;;5.32;1.02;;;;;;;13.76;100.00;101278.25;5092991;28;20055;-52
2022/09/18 11:15:25;;;;;;;6.95;1.05;;;;;;;13.80;100.00;101286.81;5092685;28;20036;-51
2022/09/18 11:17:55;;;;;;;2.92;0.82;;;;;;;13.68;100.00;101286.72;5093465;28;20048;-52
2022/09/18 11:20:27;;;;;;;4.38;1.02;;;;;;;13.64;100.00;101276.50;5091240;28;20044;-52
2022/09/18 11:23:14;;;;;;;5.95;1.58;;;;;;;13.71;100.00;101274.25;5092732;28;20119;-51
2022/09/18 11:25:44;;;;;;;8.05;1.15;;;;;;;13.67;100.00;101284.19;5093019;28;20363;-51
2022/09/18 11:28:22;;;;;;;8.13;1.20;;;;;;;13.57;100.00;101281.38;5091469;28;20118;-50
2022/09/18 11:30:58;;;;;;;9.90;1.60;;;;;;;13.50;100.00;101280.13;5091032;28;20391;-50
2022/09/18 11:33:30;;;;;;;6.93;1.30;;;;;;;13.58;100.00;101277.78;5092650;28;20101;-51
2022/09/18 11:36:02;;;;;;;7.25;1.17;;;;;;;13.52;100.00;101280.84;5091247;28;20055;-53
2022/09/18 11:38:31;;;;;;;5.28;1.40;;;;;;;13.54;100.00;101276.31;5091066;28;20056;-50
2022/09/18 11:41:03;;;;;;;5.63;1.50;;;;;;;13.54;100.00;101278.97;5091778;28;20502;-48